createdAt,value
2023-01-21T00:01:07.232Z,4.45
2023-01-21T00:03:34.445Z,4.47
2023-01-21T00:06:02.104Z,4.38
2023-01-21T00:08:29.214Z,4.22
2023-01-21T00:10:56.630Z,4.57
2023-01-21T00:13:23.934Z,4.70
2023-01-21T00:15:51.415Z,4.50
2023-01-21T00:18:18.638Z,4.50
2023-01-21T00:20:46.662Z,5.32
2023-01-21T00:23:13.882Z,4.70
2023-01-21T00:25:41.207Z,4.20
2023-01-21T00:28:08.491Z,4.60
2023-01-21T00:30:37.207Z,4.53
2023-01-21T00:33:04.745Z,5.00
2023-01-21T00:35:31.942Z,4.38
2023-01-21T00:37:59.060Z,4.28
2023-01-21T00:40:26.138Z,4.70
2023-01-21T00:42:53.262Z,4.40
2023-01-21T00:45:20.296Z,4.45
2023-01-21T00:47:47.647Z,4.38
2023-01-21T00:50:14.919Z,4.15
2023-01-21T00:52:42.057Z,3.95
2023-01-21T00:55:09.425Z,4.78
2023-01-21T00:57:36.570Z,4.18
2023-01-21T01:00:05.169Z,4.38
2023-01-21T01:02:32.247Z,4.30
2023-01-21T01:04:59.245Z,4.28
2023-01-21T01:07:26.462Z,4.10
2023-01-21T01:09:53.452Z,4.20
2023-01-21T01:12:20.543Z,3.95
2023-01-21T01:14:48.023Z,3.97
2023-01-21T01:17:15.033Z,4.07
2023-01-21T01:19:42.061Z,4.13
2023-01-21T01:22:09.339Z,4.25
2023-01-21T01:24:36.464Z,4.47
2023-01-21T01:27:03.645Z,3.92
2023-01-21T01:29:30.840Z,3.75
2023-01-21T01:31:58.184Z,4.20
2023-01-21T01:34:25.319Z,4.00
2023-01-21T01:36:52.438Z,3.65
2023-01-21T01:39:19.664Z,3.80
2023-01-21T01:41:46.814Z,3.55
2023-01-21T01:44:51.247Z,3.95
2023-01-21T01:47:19.183Z,3.50
2023-01-21T01:49:47.911Z,3.88
2023-01-21T01:52:17.774Z,3.72
2023-01-21T01:54:51.641Z,4.30
2023-01-21T01:57:22.995Z,3.60
2023-01-21T01:59:51.561Z,4.18
2023-01-21T02:02:20.159Z,3.50
2023-01-21T02:05:00.631Z,3.85
2023-01-21T02:07:30.925Z,3.60
2023-01-21T02:09:58.423Z,3.63
2023-01-21T02:12:25.722Z,3.85
2023-01-21T02:14:52.840Z,3.72
2023-01-21T02:17:53.577Z,3.25
2023-01-21T02:20:59.855Z,3.70
2023-01-21T02:23:38.725Z,3.70
2023-01-21T02:26:29.603Z,3.92
2023-01-21T02:29:25.789Z,3.60
2023-01-21T02:31:58.795Z,3.22
2023-01-21T02:34:31.532Z,3.60
2023-01-21T02:37:01.434Z,3.17
2023-01-21T02:39:33.053Z,3.55
2023-01-21T02:42:05.217Z,3.45
2023-01-21T02:44:42.980Z,3.13
2023-01-21T02:47:27.127Z,3.58
2023-01-21T02:50:15.171Z,3.40
2023-01-21T02:52:42.315Z,3.40
2023-01-21T02:55:16.396Z,3.70
2023-01-21T02:57:49.763Z,3.40
2023-01-21T03:00:28.430Z,3.10
2023-01-21T03:03:32.671Z,3.17
2023-01-21T03:06:18.785Z,3.50
2023-01-21T03:08:52.889Z,3.72
2023-01-21T03:11:21.808Z,3.15
2023-01-21T03:14:16.959Z,3.25
2023-01-21T03:16:58.937Z,3.30
2023-01-21T03:19:50.594Z,3.28
2023-01-21T03:22:22.569Z,3.40
2023-01-21T03:24:52.191Z,2.88
2023-01-21T03:27:24.356Z,3.15
2023-01-21T03:29:57.487Z,3.20
2023-01-21T03:32:27.751Z,3.10
2023-01-21T03:34:56.197Z,2.97
2023-01-21T03:37:36.250Z,3.42
2023-01-21T03:40:24.336Z,2.70
2023-01-21T03:42:52.913Z,3.03
2023-01-21T03:45:47.788Z,2.92
2023-01-21T03:48:27.241Z,3.05
2023-01-21T03:50:59.390Z,3.28
2023-01-21T03:53:26.295Z,2.78
2023-01-21T03:55:53.216Z,3.10
2023-01-21T03:58:20.295Z,2.97
2023-01-21T04:00:48.630Z,2.90
2023-01-21T04:03:15.457Z,2.90
2023-01-21T04:05:42.309Z,2.60
2023-01-21T04:08:09.328Z,3.00
2023-01-21T04:10:36.381Z,2.90
2023-01-21T04:13:03.287Z,2.40
2023-01-21T04:15:30.074Z,2.75
2023-01-21T04:17:56.938Z,2.70
2023-01-21T04:20:23.783Z,2.80
2023-01-21T04:22:50.663Z,2.78
2023-01-21T04:25:17.556Z,2.90
2023-01-21T04:27:44.401Z,2.65
2023-01-21T04:30:11.505Z,2.58
2023-01-21T04:32:38.331Z,2.63
2023-01-21T04:35:05.476Z,2.85
2023-01-21T04:37:32.347Z,2.75
2023-01-21T04:39:59.170Z,2.42
2023-01-21T04:42:26.018Z,2.67
2023-01-21T04:44:52.834Z,2.55
2023-01-21T04:47:19.650Z,2.72
2023-01-21T04:49:46.567Z,2.50
2023-01-21T04:52:13.365Z,2.60
2023-01-21T04:54:40.191Z,2.67
2023-01-21T04:57:07.118Z,2.50
2023-01-21T04:59:34.234Z,2.42
2023-01-21T05:02:01.062Z,2.25
2023-01-21T05:04:27.949Z,2.25
2023-01-21T05:06:55.952Z,2.60
2023-01-21T05:09:22.797Z,2.40
2023-01-21T05:11:49.709Z,2.40
2023-01-21T05:14:16.532Z,2.20
2023-01-21T05:16:43.402Z,2.50
2023-01-21T05:19:10.296Z,2.25
2023-01-21T05:21:37.180Z,2.20
2023-01-21T05:24:04.159Z,2.55
2023-01-21T05:26:30.996Z,2.40
2023-01-21T05:28:57.800Z,2.00
2023-01-21T05:31:25.438Z,2.40
2023-01-21T05:33:52.337Z,2.17
2023-01-21T05:36:19.205Z,2.25
2023-01-21T05:38:46.045Z,2.40
2023-01-21T05:41:12.824Z,2.40
2023-01-21T05:43:39.651Z,2.10
2023-01-21T05:46:06.664Z,2.42
2023-01-21T05:48:33.526Z,2.30
2023-01-21T05:51:00.401Z,2.40
2023-01-21T05:53:27.466Z,2.30
2023-01-21T05:55:55.668Z,2.40
2023-01-21T05:58:23.642Z,2.17
2023-01-21T06:00:50.897Z,2.20
2023-01-21T06:03:18.991Z,2.00
2023-01-21T06:05:47.268Z,2.40
2023-01-21T06:08:14.093Z,2.40
2023-01-21T06:10:41.313Z,2.60
2023-01-21T06:13:11.394Z,2.45
2023-01-21T06:15:38.368Z,2.53
2023-01-21T06:18:05.381Z,2.40
2023-01-21T06:20:32.577Z,2.60
2023-01-21T06:23:02.032Z,2.60
2023-01-21T06:25:28.877Z,2.20
2023-01-21T06:27:56.307Z,4.10
2023-01-21T06:30:24.662Z,3.13
2023-01-21T06:32:52.324Z,4.00
2023-01-21T06:35:19.691Z,3.53
2023-01-21T06:37:46.731Z,3.80
2023-01-21T06:40:14.709Z,2.65
2023-01-21T06:42:41.710Z,2.92
2023-01-21T06:45:09.320Z,3.35
2023-01-21T06:47:36.256Z,3.25
2023-01-21T06:50:03.132Z,3.03
2023-01-21T06:52:30.006Z,4.22
2023-01-21T06:54:56.841Z,2.95
2023-01-21T06:57:23.882Z,3.45
2023-01-21T06:59:50.945Z,3.10
2023-01-21T07:02:17.839Z,3.00
2023-01-21T07:04:45.646Z,3.55
2023-01-21T07:07:12.552Z,3.30
2023-01-21T07:09:39.425Z,3.50
2023-01-21T07:12:06.413Z,3.90
2023-01-21T07:14:33.266Z,3.28
2023-01-21T07:17:00.066Z,4.43
2023-01-21T07:19:27.359Z,3.72
2023-01-21T07:21:54.850Z,4.25
2023-01-21T07:24:21.968Z,4.65
2023-01-21T07:26:48.935Z,3.50
2023-01-21T07:29:16.014Z,3.65
2023-01-21T07:31:42.872Z,4.20
2023-01-21T07:34:09.917Z,3.35
2023-01-21T07:36:36.804Z,3.33
2023-01-21T07:39:03.816Z,2.90
2023-01-21T07:41:30.766Z,4.18
2023-01-21T07:43:57.780Z,3.38
2023-01-21T07:46:24.743Z,3.05
2023-01-21T07:48:52.594Z,3.70
2023-01-21T07:51:20.533Z,3.78
2023-01-21T07:53:47.907Z,3.15
2023-01-21T07:56:15.258Z,3.38
2023-01-21T07:58:42.253Z,3.15
2023-01-21T08:01:10.130Z,3.20
2023-01-21T08:03:37.846Z,3.40
2023-01-21T08:06:06.353Z,2.92
2023-01-21T08:08:33.886Z,4.20
2023-01-21T08:11:00.752Z,3.58
2023-01-21T08:13:27.663Z,3.35
2023-01-21T08:15:56.369Z,3.30
2023-01-21T08:18:24.601Z,4.03
2023-01-21T08:20:56.218Z,5.55
2023-01-21T08:23:23.208Z,4.82
2023-01-21T08:25:50.403Z,6.13
2023-01-21T08:28:17.609Z,8.65
2023-01-21T08:30:44.963Z,6.13
2023-01-21T08:33:11.948Z,7.10
2023-01-21T08:35:38.949Z,8.38
2023-01-21T08:38:06.259Z,7.65
2023-01-21T08:40:33.110Z,6.70
2023-01-21T08:43:01.770Z,7.32
2023-01-21T08:45:29.130Z,6.63
2023-01-21T08:47:56.552Z,6.68
2023-01-21T08:50:26.805Z,6.38
2023-01-21T08:52:55.421Z,7.95
2023-01-21T08:55:26.949Z,7.70
2023-01-21T08:57:54.912Z,6.05
2023-01-21T09:00:23.093Z,5.55
2023-01-21T09:02:51.700Z,5.20
2023-01-21T09:05:19.013Z,5.00
2023-01-21T09:07:46.738Z,4.53
2023-01-21T09:10:33.990Z,4.97
2023-01-21T09:13:08.619Z,4.00
2023-01-21T09:15:43.330Z,5.60
2023-01-21T09:18:10.412Z,3.83
2023-01-21T09:20:37.981Z,4.13
2023-01-21T09:23:24.586Z,3.88
2023-01-21T09:25:53.678Z,3.88
2023-01-21T09:28:22.107Z,4.07
2023-01-21T09:30:49.130Z,4.00
2023-01-21T09:33:16.762Z,4.10
2023-01-21T09:35:44.631Z,4.05
2023-01-21T09:38:13.106Z,3.70
2023-01-21T09:40:45.458Z,3.58
2023-01-21T09:43:20.428Z,3.42
2023-01-21T09:45:50.879Z,2.75
2023-01-21T09:48:31.908Z,3.38
2023-01-21T09:51:03.578Z,2.80
2023-01-21T09:53:44.092Z,3.28
2023-01-21T09:56:23.330Z,3.03
2023-01-21T09:59:21.038Z,2.92
2023-01-21T10:01:50.281Z,2.80
2023-01-21T10:04:26.352Z,3.03
2023-01-21T10:06:53.365Z,5.25
2023-01-21T10:09:47.272Z,5.80
2023-01-21T10:12:29.079Z,5.80
2023-01-21T10:15:02.061Z,5.18
2023-01-21T10:17:56.028Z,8.35
2023-01-21T10:20:56.013Z,8.95
2023-01-21T10:23:45.244Z,8.50
2023-01-21T10:26:14.185Z,5.40
2023-01-21T10:28:57.105Z,10.23
2023-01-21T10:31:27.521Z,12.20
2023-01-21T10:33:55.084Z,11.38
2023-01-21T10:36:45.070Z,9.75
2023-01-21T10:39:45.336Z,9.82
2023-01-21T10:42:17.566Z,9.88
2023-01-21T10:44:48.253Z,10.38
2023-01-21T10:47:20.705Z,11.48
2023-01-21T10:50:18.418Z,9.30
2023-01-21T10:52:47.977Z,10.48
2023-01-21T10:55:34.885Z,8.98
2023-01-21T10:58:05.797Z,9.00
2023-01-21T11:00:39.051Z,7.80
2023-01-21T11:03:15.786Z,7.63
2023-01-21T11:05:43.853Z,7.53
2023-01-21T11:08:21.818Z,7.07
2023-01-21T11:10:53.675Z,6.53
2023-01-21T11:13:20.727Z,5.55
2023-01-21T11:15:55.308Z,5.45
2023-01-21T11:18:42.595Z,5.00
2023-01-21T11:21:20.331Z,5.25
2023-01-21T11:23:56.324Z,4.78
2023-01-21T11:26:29.082Z,4.05
2023-01-21T11:29:16.948Z,4.25
2023-01-21T11:32:02.749Z,3.78
2023-01-21T11:34:30.437Z,3.80
2023-01-21T11:37:06.983Z,3.55
2023-01-21T11:39:38.531Z,3.50
2023-01-21T11:42:12.141Z,3.03
2023-01-21T11:44:53.953Z,3.67
2023-01-21T11:47:30.389Z,3.45
2023-01-21T11:50:10.348Z,3.10
2023-01-21T11:52:37.368Z,2.90
2023-01-21T11:55:13.074Z,3.40
2023-01-21T11:57:40.170Z,3.15
2023-01-21T12:00:18.661Z,3.10
2023-01-21T12:02:51.509Z,3.53
2023-01-21T12:05:29.622Z,4.63
2023-01-21T12:07:57.548Z,6.43
2023-01-21T12:10:27.432Z,9.05
2023-01-21T12:13:13.054Z,13.95
2023-01-21T12:16:03.851Z,9.18
2023-01-21T12:18:42.967Z,19.15
2023-01-21T12:21:28.116Z,8.85
2023-01-21T12:24:20.959Z,7.95
2023-01-21T12:26:56.592Z,8.63
2023-01-21T12:29:57.594Z,10.65
2023-01-21T12:32:39.727Z,12.25
2023-01-21T12:35:24.893Z,15.27
2023-01-21T12:37:59.455Z,13.43
2023-01-21T12:41:18.777Z,11.68
2023-01-21T12:43:52.958Z,10.43
2023-01-21T12:46:49.204Z,8.82
2023-01-21T12:49:24.808Z,8.93
2023-01-21T12:52:00.019Z,6.50
2023-01-21T12:54:48.674Z,7.70
2023-01-21T12:57:29.712Z,25.27
2023-01-21T13:00:37.844Z,69.57
2023-01-21T13:03:17.678Z,58.53
2023-01-21T13:05:55.498Z,53.47
2023-01-21T13:08:34.976Z,41.45
2023-01-21T13:11:22.575Z,51.90
2023-01-21T13:14:07.879Z,44.22
2023-01-21T13:16:39.873Z,41.92
2023-01-21T13:19:09.797Z,42.13
2023-01-21T13:21:43.354Z,40.97
2023-01-21T13:24:23.180Z,39.75
2023-01-21T13:27:16.894Z,38.63
2023-01-21T13:30:20.275Z,47.88
2023-01-21T13:32:58.975Z,35.30
2023-01-21T13:35:41.467Z,41.05
2023-01-21T13:38:19.285Z,38.50
2023-01-21T13:41:14.045Z,38.80
2023-01-21T13:43:55.060Z,34.40
2023-01-21T13:46:22.254Z,31.90
2023-01-21T13:49:12.127Z,28.48
2023-01-21T13:51:44.231Z,26.27
2023-01-21T13:54:25.592Z,22.98
2023-01-21T14:00:18.264Z,20.80
2023-01-21T14:03:07.478Z,16.92
2023-01-21T14:05:47.110Z,18.60
2023-01-21T14:08:35.924Z,19.27
2023-01-21T14:11:25.211Z,16.38
2023-01-21T14:14:04.218Z,11.57
2023-01-21T14:16:47.097Z,12.48
2023-01-21T14:19:41.607Z,11.82
2023-01-21T14:22:20.452Z,11.15
2023-01-21T14:24:47.758Z,10.38
2023-01-21T14:27:51.607Z,9.70
2023-01-21T14:30:29.312Z,8.65
2023-01-21T14:33:08.227Z,8.55
2023-01-21T14:35:48.036Z,7.93
2023-01-21T14:38:24.422Z,8.48
2023-01-21T14:41:03.587Z,8.18
2023-01-21T14:43:30.536Z,8.75
2023-01-21T14:45:59.938Z,13.98
2023-01-21T14:48:32.194Z,10.27
2023-01-21T14:51:08.283Z,8.38
2023-01-21T14:53:50.711Z,7.20
2023-01-21T14:56:29.372Z,6.22
2023-01-21T14:59:06.195Z,6.63
2023-01-21T15:01:36.197Z,5.78
2023-01-21T15:04:08.217Z,5.40
2023-01-21T15:06:40.455Z,5.18
2023-01-21T15:09:15.521Z,6.25
2023-01-21T15:11:44.373Z,4.70
2023-01-21T15:14:21.985Z,4.40
2023-01-21T15:16:49.137Z,4.00
2023-01-21T15:19:24.281Z,3.90
2023-01-21T15:22:00.197Z,3.47
2023-01-21T15:24:30.661Z,3.08
2023-01-21T15:27:12.971Z,3.20
2023-01-21T15:29:42.285Z,3.30
2023-01-21T15:32:49.156Z,3.10
2023-01-21T15:35:18.903Z,2.83
2023-01-21T15:37:49.361Z,2.75
2023-01-21T15:40:25.786Z,2.83
2023-01-21T15:43:03.362Z,2.75
2023-01-21T15:45:48.863Z,2.30
2023-01-21T15:48:41.174Z,2.30
2023-01-21T15:51:50.405Z,2.17
2023-01-21T15:54:29.261Z,2.00
2023-01-21T15:57:14.960Z,2.50
2023-01-21T15:59:59.993Z,2.72
2023-01-21T16:02:32.068Z,2.22
2023-01-21T16:05:07.135Z,2.22
2023-01-21T16:08:04.285Z,2.75
2023-01-21T16:10:57.537Z,2.17
2023-01-21T16:13:47.421Z,1.95
2023-01-21T16:16:15.817Z,2.60
2023-01-21T16:18:51.721Z,2.40
2023-01-21T16:21:23.003Z,2.60
2023-01-21T16:23:52.311Z,1.95
2023-01-21T16:26:32.997Z,3.15
2023-01-21T16:29:00.948Z,2.00
2023-01-21T16:31:28.209Z,1.90
2023-01-21T16:33:55.191Z,2.70
2023-01-21T16:36:22.261Z,1.75
2023-01-21T16:38:49.381Z,1.85
2023-01-21T16:41:24.392Z,1.50
2023-01-21T16:43:58.358Z,2.67
2023-01-21T16:46:32.955Z,2.35
2023-01-21T16:49:01.594Z,1.88
2023-01-21T16:51:35.126Z,2.45
2023-01-21T16:54:20.690Z,2.17
2023-01-21T16:56:48.954Z,1.65
2023-01-21T16:59:25.620Z,1.60
2023-01-21T17:01:53.494Z,1.58
2023-01-21T17:04:20.690Z,2.30
2023-01-21T17:06:47.891Z,4.68
2023-01-21T17:09:36.630Z,5.85
2023-01-21T17:12:08.815Z,4.30
2023-01-21T17:14:37.368Z,4.90
2023-01-21T17:17:08.280Z,4.78
2023-01-21T17:19:38.745Z,3.10
2023-01-21T17:22:27.602Z,5.80
2023-01-21T17:25:23.905Z,4.10
2023-01-21T17:27:50.968Z,3.00
2023-01-21T17:30:38.333Z,5.15
2023-01-21T17:33:05.472Z,5.07
2023-01-21T17:35:35.920Z,9.20
2023-01-21T17:38:06.105Z,16.83
2023-01-21T17:40:48.184Z,22.80
2023-01-21T17:43:25.617Z,23.60
2023-01-21T17:45:55.382Z,20.60
2023-01-21T17:48:46.269Z,29.00
2023-01-21T17:51:18.014Z,25.98
2023-01-21T17:53:56.693Z,25.52
2023-01-21T17:56:40.578Z,24.05
2023-01-21T17:59:38.065Z,22.25
2023-01-21T18:02:10.665Z,19.60
2023-01-21T18:04:37.628Z,15.90
2023-01-21T18:07:15.978Z,11.38
2023-01-21T18:09:43.458Z,11.55
2023-01-21T18:12:11.530Z,11.60
2023-01-21T18:14:38.443Z,11.10
2023-01-21T18:17:05.500Z,9.52
2023-01-21T18:19:38.092Z,8.75
2023-01-21T18:22:07.302Z,9.00
2023-01-21T18:24:35.888Z,10.15
2023-01-21T18:27:03.540Z,8.77
2023-01-21T18:29:31.474Z,7.03
2023-01-21T18:31:59.426Z,6.32
2023-01-21T18:34:26.575Z,5.63
2023-01-21T18:36:54.977Z,5.10
2023-01-21T18:39:22.232Z,4.07
2023-01-21T18:41:49.161Z,4.28
2023-01-21T18:44:17.106Z,4.30
2023-01-21T18:46:44.427Z,4.10
2023-01-21T18:49:15.850Z,3.08
2023-01-21T18:51:43.710Z,3.22
2023-01-21T18:54:11.731Z,3.30
2023-01-21T18:56:38.911Z,3.13
2023-01-21T18:59:32.369Z,2.88
2023-01-21T19:01:59.640Z,2.90
2023-01-21T19:04:28.878Z,2.10
2023-01-21T19:06:56.153Z,2.22
2023-01-21T19:09:25.668Z,2.50
2023-01-21T19:11:53.047Z,2.22
2023-01-21T19:14:19.995Z,1.90
2023-01-21T19:16:47.190Z,2.00
2023-01-21T19:19:16.179Z,2.03
2023-01-21T19:21:43.558Z,1.88
2023-01-21T19:24:12.236Z,2.40
2023-01-21T19:26:40.754Z,1.98
2023-01-21T19:29:16.871Z,2.10
2023-01-21T19:31:44.258Z,2.67
2023-01-21T19:34:11.557Z,2.45
2023-01-21T19:36:40.624Z,2.55
2023-01-21T19:39:18.334Z,2.45
2023-01-21T19:41:48.518Z,2.20
2023-01-21T19:44:15.979Z,2.10
2023-01-21T19:46:43.670Z,2.58
2023-01-21T19:49:16.429Z,5.32
2023-01-21T19:51:44.722Z,4.20
2023-01-21T19:54:11.863Z,3.97
2023-01-21T19:56:39.738Z,4.30
2023-01-21T19:59:12.206Z,4.43
2023-01-21T20:01:39.974Z,3.88
2023-01-21T20:04:07.795Z,4.80
2023-01-21T20:06:40.899Z,4.72
2023-01-21T20:09:16.243Z,4.40
2023-01-21T20:11:43.767Z,4.38
2023-01-21T20:14:12.150Z,3.67
2023-01-21T20:16:47.571Z,4.55
2023-01-21T20:19:17.713Z,3.75
2023-01-21T20:21:59.850Z,4.03
2023-01-21T20:24:30.674Z,4.80
2023-01-21T20:26:59.583Z,4.00
2023-01-21T20:29:30.115Z,5.03
2023-01-21T20:31:57.427Z,6.40
2023-01-21T20:34:25.602Z,5.63
2023-01-21T20:36:54.555Z,4.78
2023-01-21T20:39:22.605Z,5.03
2023-01-21T20:41:50.550Z,4.75
2023-01-21T20:44:18.707Z,4.18
2023-01-21T20:46:46.938Z,4.00
2023-01-21T20:49:14.999Z,3.40
2023-01-21T20:51:47.649Z,3.58
2023-01-21T20:54:15.966Z,4.10
2023-01-21T20:56:44.272Z,4.68
2023-01-21T20:59:11.956Z,4.18
2023-01-21T21:01:40.495Z,3.30
2023-01-21T21:04:09.301Z,3.10
2023-01-21T21:06:37.938Z,3.40
2023-01-21T21:09:06.902Z,4.72
2023-01-21T21:11:34.946Z,3.70
2023-01-21T21:14:05.255Z,3.65
2023-01-21T21:16:36.252Z,2.90
2023-01-21T21:19:04.767Z,3.83
2023-01-21T21:21:32.457Z,3.15
2023-01-21T21:24:01.214Z,2.75
2023-01-21T21:26:33.971Z,2.80
2023-01-21T21:29:01.820Z,2.60
2023-01-21T21:31:33.108Z,2.40
2023-01-21T21:34:00.548Z,2.58
2023-01-21T21:36:27.996Z,2.72
2023-01-21T21:38:58.097Z,2.90
2023-01-21T21:41:45.815Z,2.90
2023-01-21T21:44:14.285Z,2.90
2023-01-21T21:47:00.219Z,3.03
2023-01-21T21:49:29.175Z,2.30
2023-01-21T21:51:57.336Z,2.75
2023-01-21T21:54:24.357Z,2.22
2023-01-21T21:56:52.034Z,2.50
2023-01-21T21:59:19.289Z,2.83
2023-01-21T22:01:46.900Z,3.80
2023-01-21T22:04:14.164Z,2.92
2023-01-21T22:06:41.755Z,2.30
2023-01-21T22:09:09.697Z,2.85
2023-01-21T22:11:36.971Z,2.40
2023-01-21T22:14:05.227Z,2.38
2023-01-21T22:16:34.598Z,2.42
2023-01-21T22:19:03.658Z,2.47
2023-01-21T22:21:33.629Z,2.67
2023-01-21T22:24:03.088Z,2.40
2023-01-21T22:26:30.227Z,2.42
2023-01-21T22:28:58.137Z,2.50
2023-01-21T22:31:27.742Z,2.50
2023-01-21T22:33:55.359Z,2.08
2023-01-21T22:36:24.642Z,2.25
2023-01-21T22:38:52.928Z,2.15
2023-01-21T22:41:22.625Z,2.85
2023-01-21T22:43:50.784Z,1.92
2023-01-21T22:46:24.018Z,2.03
2023-01-21T22:48:51.430Z,2.10
2023-01-21T22:51:19.898Z,2.28
2023-01-21T22:53:48.115Z,2.20
2023-01-21T22:56:17.681Z,2.50
2023-01-21T22:58:45.256Z,2.13
2023-01-21T23:01:23.078Z,2.20
2023-01-21T23:03:50.306Z,2.08
2023-01-21T23:06:18.312Z,2.40
2023-01-21T23:08:45.846Z,2.17
2023-01-21T23:11:17.781Z,2.15
2023-01-21T23:13:46.101Z,2.10
2023-01-21T23:16:19.423Z,2.50
2023-01-21T23:18:46.472Z,2.20
2023-01-21T23:21:17.709Z,2.00
2023-01-21T23:26:13.574Z,2.40
2023-01-21T23:28:41.151Z,2.60
2023-01-21T23:31:15.479Z,2.40
2023-01-21T23:33:43.041Z,2.05
2023-01-21T23:36:13.739Z,2.20
2023-01-21T23:38:41.977Z,2.38
2023-01-21T23:41:11.706Z,2.10
2023-01-21T23:43:39.576Z,2.30
2023-01-21T23:46:08.782Z,2.58
2023-01-21T23:48:35.784Z,2.60
2023-01-21T23:51:08.163Z,2.08
2023-01-21T23:53:37.574Z,2.67
2023-01-21T23:56:06.880Z,2.58
2023-01-21T23:58:38.428Z,2.25
